Time;durP1;ratioP1;P1;durP2;ratioP2;P2;SDS_P1;SDS_P2;PMS_P1;PMS_P2;Temp;Humidity;BMP_temperature;BMP_pressure;BME280_temperature;BME280_humidity;BME280_pressure;Samples;Min_cycle;Max_cycle;Signal;HPM_P1;HPM_P2
2021/09/24 00:00:11;;;;;;;7.65;1.58;;;;;;;;;;5066222;28;20036;-60
2021/09/24 00:02:37;;;;;;;12.88;2.35;;;;;;;;;;5071567;28;20543;-60
2021/09/24 00:05:03;;;;;;;12.88;2.05;;;;;;;;;;5067633;28;20123;-60
2021/09/24 00:07:29;;;;;;;13.68;1.73;;;;;;;;;;5067331;28;20040;-60
2021/09/24 00:09:55;;;;;;;9.52;1.80;;;;;;;;;;5071604;28;20042;-60
2021/09/24 00:12:21;;;;;;;13.63;1.80;;;;;;;;;;5064122;28;20052;-60
2021/09/24 00:14:47;;;;;;;9.80;1.70;;;;;;;;;;5068088;28;20075;-59
2021/09/24 00:17:13;;;;;;;10.02;2.13;;;;;;;;;;5066009;28;20064;-60
2021/09/24 00:19:39;;;;;;;9.27;1.67;;;;;;;;;;5070994;28;20024;-61
2021/09/24 00:22:06;;;;;;;9.98;1.73;;;;;;;;;;5062230;28;20468;-60
2021/09/24 00:24:32;;;;;;;7.32;1.67;;;;;;;;;;5069051;28;20506;-60
2021/09/24 00:26:58;;;;;;;9.27;1.77;;;;;;;;;;5070207;28;20029;-59
2021/09/24 00:29:23;;;;;;;8.45;1.85;;;;;;;;;;5069780;28;20028;-60
2021/09/24 00:31:49;;;;;;;12.60;1.63;;;;;;;;;;5070888;28;20060;-60
2021/09/24 00:34:15;;;;;;;14.65;2.85;;;;;;;;;;5071662;28;20020;-60
2021/09/24 00:36:41;;;;;;;15.10;1.73;;;;;;;;;;5067832;28;20521;-61
2021/09/24 00:39:07;;;;;;;6.43;1.60;;;;;;;;;;5070052;28;20055;-61
2021/09/24 00:41:33;;;;;;;15.38;2.25;;;;;;;;;;5064750;28;20040;-59
2021/09/24 00:44:01;;;;;;;6.93;1.65;;;;;;;;;;5075426;28;20044;-60
2021/09/24 00:46:27;;;;;;;8.18;1.50;;;;;;;;;;5070219;28;20029;-60
2021/09/24 00:48:53;;;;;;;10.38;1.83;;;;;;;;;;5074932;28;20025;-60
2021/09/24 00:51:19;;;;;;;6.18;1.42;;;;;;;;;;5073486;28;20040;-60
2021/09/24 00:53:45;;;;;;;9.43;2.38;;;;;;;;;;5074752;28;20108;-60
2021/09/24 00:56:12;;;;;;;12.65;2.10;;;;;;;;;;5073788;28;20070;-59
2021/09/24 00:58:38;;;;;;;25.50;3.47;;;;;;;;;;5071369;28;20029;-60
2021/09/24 01:01:04;;;;;;;6.20;1.88;;;;;;;;;;5068810;28;20067;-60
2021/09/24 01:03:30;;;;;;;5.95;1.83;;;;;;;;;;5072359;28;20075;-60
2021/09/24 01:05:56;;;;;;;6.32;1.35;;;;;;;;;;5073387;28;20112;-60
2021/09/24 01:08:22;;;;;;;14.48;2.00;;;;;;;;;;5062643;28;20379;-61
2021/09/24 01:10:49;;;;;;;14.88;2.40;;;;;;;;;;5065383;28;20031;-60
2021/09/24 01:13:15;;;;;;;10.82;1.73;;;;;;;;;;5074640;28;20384;-60
2021/09/24 01:15:41;;;;;;;14.48;1.95;;;;;;;;;;5066299;28;20506;-60
2021/09/24 01:18:07;;;;;;;13.52;2.13;;;;;;;;;;5073845;28;20036;-59
2021/09/24 01:20:33;;;;;;;12.38;1.98;;;;;;;;;;5074305;28;20024;-60
2021/09/24 01:22:59;;;;;;;10.05;1.73;;;;;;;;;;5073835;28;20033;-60
2021/09/24 01:25:25;;;;;;;9.93;1.77;;;;;;;;;;5073124;28;20349;-60
2021/09/24 01:27:52;;;;;;;8.50;1.95;;;;;;;;;;5071246;28;20028;-60
2021/09/24 01:30:18;;;;;;;11.75;1.85;;;;;;;;;;5074300;28;20033;-60
2021/09/24 01:32:45;;;;;;;13.02;2.15;;;;;;;;;;5073741;28;20455;-59
2021/09/24 01:35:11;;;;;;;10.35;2.10;;;;;;;;;;5074230;28;20036;-60
2021/09/24 01:37:37;;;;;;;11.35;2.28;;;;;;;;;;5072631;28;20056;-60
2021/09/24 01:40:04;;;;;;;9.95;2.05;;;;;;;;;;5074642;28;20024;-60
2021/09/24 01:42:30;;;;;;;9.45;2.65;;;;;;;;;;5069879;28;20031;-60
2021/09/24 01:44:56;;;;;;;9.23;2.58;;;;;;;;;;5068648;28;20103;-60
2021/09/24 01:47:22;;;;;;;9.60;2.30;;;;;;;;;;5069156;28;20445;-59
2021/09/24 01:49:48;;;;;;;11.95;2.15;;;;;;;;;;5073362;28;20032;-60
2021/09/24 01:52:14;;;;;;;6.38;1.92;;;;;;;;;;5062181;28;20032;-60
2021/09/24 01:54:40;;;;;;;9.68;2.05;;;;;;;;;;5073882;28;20078;-60
2021/09/24 01:57:06;;;;;;;12.02;1.48;;;;;;;;;;5070626;28;20028;-59
2021/09/24 01:59:32;;;;;;;7.35;2.28;;;;;;;;;;5076189;28;20434;-60
2021/09/24 02:01:57;;;;;;;13.02;1.73;;;;;;;;;;5075226;28;20025;-60
2021/09/24 02:04:23;;;;;;;10.63;2.25;;;;;;;;;;5074064;28;20021;-60
2021/09/24 02:06:49;;;;;;;7.35;1.42;;;;;;;;;;5068618;28;20124;-61
2021/09/24 02:09:15;;;;;;;12.75;1.65;;;;;;;;;;5071881;28;20025;-60
2021/09/24 02:11:41;;;;;;;8.52;1.73;;;;;;;;;;5072088;28;20070;-61
2021/09/24 02:14:07;;;;;;;13.13;2.05;;;;;;;;;;5070011;28;20607;-59
2021/09/24 02:16:34;;;;;;;12.90;1.30;;;;;;;;;;5062979;28;20431;-60
2021/09/24 02:19:00;;;;;;;9.15;1.92;;;;;;;;;;5071787;28;20106;-60
2021/09/24 02:21:26;;;;;;;9.27;2.38;;;;;;;;;;5068806;28;20024;-61
2021/09/24 02:23:52;;;;;;;7.53;2.50;;;;;;;;;;5071573;28;20027;-60
2021/09/24 02:26:18;;;;;;;17.83;2.35;;;;;;;;;;5068304;28;20058;-61
2021/09/24 02:28:44;;;;;;;5.78;1.30;;;;;;;;;;5066157;28;20395;-61
2021/09/24 02:31:11;;;;;;;9.32;2.22;;;;;;;;;;5072583;28;20047;-59
2021/09/24 02:33:37;;;;;;;11.50;1.95;;;;;;;;;;5073071;28;20025;-60
2021/09/24 02:36:05;;;;;;;8.95;2.00;;;;;;;;;;5062439;28;20053;-60
2021/09/24 02:38:31;;;;;;;9.77;1.20;;;;;;;;;;5069578;28;20090;-58
2021/09/24 02:40:57;;;;;;;16.55;3.00;;;;;;;;;;5067935;28;20021;-60
2021/09/24 02:43:23;;;;;;;11.52;2.40;;;;;;;;;;5068039;28;20032;-60
2021/09/24 02:45:49;;;;;;;10.73;2.42;;;;;;;;;;5063413;28;20154;-60
2021/09/24 02:48:15;;;;;;;4.78;2.10;;;;;;;;;;5070542;28;20036;-60
2021/09/24 02:50:41;;;;;;;8.55;2.30;;;;;;;;;;5071086;28;20415;-59
2021/09/24 02:53:07;;;;;;;12.13;2.13;;;;;;;;;;5070179;28;20063;-58
2021/09/24 02:55:33;;;;;;;14.43;1.95;;;;;;;;;;5072944;28;20032;-59
2021/09/24 02:57:59;;;;;;;9.43;1.92;;;;;;;;;;5064910;28;20035;-60
2021/09/24 03:00:26;;;;;;;16.95;2.42;;;;;;;;;;5070780;28;20465;-60
2021/09/24 03:02:52;;;;;;;17.17;2.47;;;;;;;;;;5068056;28;20456;-59
2021/09/24 03:05:18;;;;;;;15.48;2.33;;;;;;;;;;5072169;28;20033;-59
2021/09/24 03:07:44;;;;;;;8.52;1.48;;;;;;;;;;5065853;28;20059;-60
2021/09/24 03:10:11;;;;;;;13.95;2.33;;;;;;;;;;5071828;28;20044;-60
2021/09/24 03:12:37;;;;;;;13.85;3.35;;;;;;;;;;5070911;28;20036;-60
2021/09/24 03:15:04;;;;;;;10.35;1.92;;;;;;;;;;5071944;28;20436;-59
2021/09/24 03:17:30;;;;;;;7.38;2.00;;;;;;;;;;5064663;28;20500;-60
2021/09/24 03:19:57;;;;;;;11.77;1.33;;;;;;;;;;5061918;28;20025;-60
2021/09/24 03:22:23;;;;;;;8.55;1.70;;;;;;;;;;5069718;28;20028;-59
2021/09/24 03:24:49;;;;;;;10.32;2.05;;;;;;;;;;5069578;28;20115;-59
2021/09/24 03:27:15;;;;;;;10.35;1.75;;;;;;;;;;5071478;28;20024;-61
2021/09/24 03:29:41;;;;;;;6.47;1.65;;;;;;;;;;5070425;28;20532;-60
2021/09/24 03:32:07;;;;;;;13.38;2.17;;;;;;;;;;5071378;28;20360;-59
2021/09/24 03:34:33;;;;;;;9.95;1.35;;;;;;;;;;5068563;28;20021;-61
2021/09/24 03:36:59;;;;;;;21.88;2.80;;;;;;;;;;5071960;28;20255;-60
2021/09/24 03:39:25;;;;;;;9.73;1.50;;;;;;;;;;5064747;28;20035;-60
2021/09/24 03:41:54;;;;;;;8.93;1.83;;;;;;;;;;5068522;28;20029;-60
2021/09/24 03:44:20;;;;;;;13.73;2.22;;;;;;;;;;5070448;28;20032;-60
2021/09/24 03:46:46;;;;;;;9.93;1.83;;;;;;;;;;5071518;28;20098;-60
2021/09/24 03:49:12;;;;;;;6.68;1.75;;;;;;;;;;5067948;28;20102;-60
2021/09/24 03:51:38;;;;;;;6.60;1.63;;;;;;;;;;5067778;28;20024;-60
2021/09/24 03:54:04;;;;;;;10.43;2.33;;;;;;;;;;5070674;28;20439;-59
2021/09/24 03:56:30;;;;;;;10.80;2.40;;;;;;;;;;5066811;28;20033;-59
2021/09/24 03:58:56;;;;;;;14.45;2.90;;;;;;;;;;5069282;28;20089;-60
2021/09/24 04:01:22;;;;;;;8.57;1.23;;;;;;;;;;5069047;28;20095;-60
2021/09/24 04:03:48;;;;;;;14.10;2.38;;;;;;;;;;5066521;28;20032;-60
2021/09/24 04:06:14;;;;;;;6.20;1.85;;;;;;;;;;5067390;28;20798;-60
2021/09/24 04:08:40;;;;;;;12.93;1.92;;;;;;;;;;5069279;28;20071;-59
2021/09/24 04:11:06;;;;;;;10.05;1.85;;;;;;;;;;5071386;28;20037;-60
2021/09/24 04:13:32;;;;;;;6.28;1.73;;;;;;;;;;5062067;28;20034;-60
2021/09/24 04:15:58;;;;;;;12.30;2.03;;;;;;;;;;5066214;28;20067;-60
2021/09/24 04:18:24;;;;;;;8.63;1.38;;;;;;;;;;5066978;28;20052;-60
2021/09/24 04:20:51;;;;;;;9.48;1.27;;;;;;;;;;5066049;28;20032;-59
2021/09/24 04:23:17;;;;;;;15.65;2.55;;;;;;;;;;5070297;28;20086;-59
2021/09/24 04:25:43;;;;;;;5.43;1.48;;;;;;;;;;5071435;28;20090;-59
2021/09/24 04:28:09;;;;;;;5.22;2.08;;;;;;;;;;5063737;28;20082;-60
2021/09/24 04:30:35;;;;;;;14.38;2.63;;;;;;;;;;5067413;28;20036;-60
2021/09/24 04:33:01;;;;;;;11.93;1.88;;;;;;;;;;5069918;28;20028;-60
2021/09/24 04:35:27;;;;;;;11.40;1.50;;;;;;;;;;5071386;28;20067;-60
2021/09/24 04:37:53;;;;;;;8.15;2.03;;;;;;;;;;5071126;28;20029;-60
2021/09/24 04:40:19;;;;;;;13.27;2.00;;;;;;;;;;5071097;28;20024;-59
2021/09/24 04:42:45;;;;;;;8.15;2.13;;;;;;;;;;5068261;28;20159;-60
2021/09/24 04:45:11;;;;;;;12.88;1.83;;;;;;;;;;5065251;28;20099;-60
2021/09/24 04:47:37;;;;;;;14.00;2.22;;;;;;;;;;5061406;28;20380;-60
2021/09/24 04:50:07;;;;;;;13.98;1.52;;;;;;;;;;5067354;28;20036;-60
2021/09/24 04:52:33;;;;;;;9.00;1.63;;;;;;;;;;5064032;28;20024;-60
2021/09/24 04:54:59;;;;;;;10.55;2.28;;;;;;;;;;5073528;28;20119;-60
2021/09/24 04:57:25;;;;;;;12.35;1.88;;;;;;;;;;5070691;28;20048;-60
2021/09/24 04:59:51;;;;;;;10.15;2.20;;;;;;;;;;5066304;28;20025;-60
2021/09/24 05:02:17;;;;;;;10.38;2.58;;;;;;;;;;5068154;28;20024;-60
2021/09/24 05:04:44;;;;;;;13.15;1.90;;;;;;;;;;5068391;28;20099;-59
2021/09/24 05:07:10;;;;;;;6.28;1.73;;;;;;;;;;5065621;28;20074;-59
2021/09/24 05:09:36;;;;;;;14.10;1.73;;;;;;;;;;5063233;28;20040;-60
2021/09/24 05:12:03;;;;;;;11.20;2.08;;;;;;;;;;5070302;28;20039;-59
2021/09/24 05:14:29;;;;;;;11.40;2.20;;;;;;;;;;5061297;28;20032;-60
2021/09/24 05:16:55;;;;;;;11.40;1.95;;;;;;;;;;5068231;28;20109;-60
2021/09/24 05:19:21;;;;;;;11.18;2.13;;;;;;;;;;5068725;28;20032;-59
2021/09/24 05:21:47;;;;;;;11.88;2.28;;;;;;;;;;5067394;28;20124;-59
2021/09/24 05:24:13;;;;;;;10.23;1.60;;;;;;;;;;5067567;28;20027;-60
2021/09/24 05:26:39;;;;;;;7.60;1.77;;;;;;;;;;5070517;28;20483;-60
2021/09/24 05:29:05;;;;;;;9.95;1.58;;;;;;;;;;5070897;28;20033;-60
2021/09/24 05:31:32;;;;;;;10.77;1.77;;;;;;;;;;5069417;28;20155;-60
2021/09/24 05:33:58;;;;;;;8.05;1.60;;;;;;;;;;5072507;28;20032;-59
2021/09/24 05:36:24;;;;;;;9.73;2.70;;;;;;;;;;5074191;28;20025;-60
2021/09/24 05:38:50;;;;;;;10.90;2.00;;;;;;;;;;5072873;28;20028;-60
2021/09/24 05:41:16;;;;;;;19.38;2.88;;;;;;;;;;5074225;28;20032;-60
2021/09/24 05:43:42;;;;;;;10.95;1.85;;;;;;;;;;5072731;28;20432;-60
2021/09/24 05:46:10;;;;;;;7.97;1.83;;;;;;;;;;5073106;28;20487;-60
2021/09/24 05:48:35;;;;;;;9.02;2.00;;;;;;;;;;5073800;28;20032;-60
2021/09/24 05:51:02;;;;;;;6.90;2.13;;;;;;;;;;5068634;28;20047;-60
2021/09/24 05:53:28;;;;;;;10.10;2.13;;;;;;;;;;5068408;28;20037;-60
2021/09/24 05:55:55;;;;;;;12.90;1.90;;;;;;;;;;5073014;28;20157;-60
2021/09/24 05:58:21;;;;;;;6.78;2.13;;;;;;;;;;5061727;28;20155;-59
2021/09/24 06:00:47;;;;;;;12.05;1.63;;;;;;;;;;5073644;28;20100;-58
2021/09/24 06:03:13;;;;;;;10.52;1.17;;;;;;;;;;5062140;28;20035;-60
2021/09/24 06:05:40;;;;;;;5.60;1.98;;;;;;;;;;5072606;28;20549;-60
2021/09/24 06:08:06;;;;;;;11.18;2.33;;;;;;;;;;5073567;28;20032;-59
2021/09/24 06:10:32;;;;;;;10.93;2.08;;;;;;;;;;5073316;28;20105;-60
2021/09/24 06:12:58;;;;;;;12.63;1.73;;;;;;;;;;5073288;28;20044;-60
2021/09/24 06:15:25;;;;;;;8.77;1.92;;;;;;;;;;5072219;28;20029;-58
2021/09/24 06:17:52;;;;;;;9.40;1.90;;;;;;;;;;5069569;28;20388;-60
2021/09/24 06:20:18;;;;;;;13.85;1.85;;;;;;;;;;5059776;28;20154;-60
2021/09/24 06:22:44;;;;;;;6.68;1.40;;;;;;;;;;5063058;28;20068;-60
2021/09/24 06:25:11;;;;;;;18.55;2.45;;;;;;;;;;5067619;28;20528;-60
2021/09/24 06:27:37;;;;;;;12.38;1.60;;;;;;;;;;5069559;28;20032;-60
2021/09/24 06:30:04;;;;;;;10.00;2.00;;;;;;;;;;5073609;28;20476;-61
2021/09/24 06:32:33;;;;;;;11.05;2.28;;;;;;;;;;5073186;28;20025;-61
2021/09/24 06:34:59;;;;;;;11.02;2.13;;;;;;;;;;5064400;28;20033;-61
2021/09/24 06:37:25;;;;;;;11.07;1.70;;;;;;;;;;5066384;28;20025;-60
2021/09/24 06:39:51;;;;;;;5.95;1.17;;;;;;;;;;5068096;28;20056;-60
2021/09/24 06:42:17;;;;;;;11.60;1.95;;;;;;;;;;5072446;28;20036;-60
2021/09/24 06:44:44;;;;;;;5.57;1.45;;;;;;;;;;5072837;28;20107;-60
2021/09/24 06:47:11;;;;;;;6.38;1.52;;;;;;;;;;5072063;28;20115;-60
2021/09/24 06:49:37;;;;;;;12.50;2.90;;;;;;;;;;5072940;28;20058;-60
2021/09/24 06:52:04;;;;;;;7.60;2.67;;;;;;;;;;5072744;28;20032;-59
2021/09/24 06:54:30;;;;;;;9.90;2.28;;;;;;;;;;5070586;28;20422;-59
2021/09/24 06:56:56;;;;;;;11.27;1.75;;;;;;;;;;5071593;28;20060;-59
2021/09/24 06:59:22;;;;;;;7.65;2.30;;;;;;;;;;5073421;28;20032;-59
2021/09/24 07:01:48;;;;;;;9.07;2.22;;;;;;;;;;5077979;28;20433;-59
2021/09/24 07:04:15;;;;;;;9.80;1.50;;;;;;;;;;5068326;28;20024;-60
2021/09/24 07:06:41;;;;;;;9.68;2.03;;;;;;;;;;5072255;28;20028;-60
2021/09/24 07:09:07;;;;;;;7.57;2.40;;;;;;;;;;5071829;28;20752;-58
2021/09/24 07:11:34;;;;;;;14.25;1.85;;;;;;;;;;5071289;28;20082;-60
2021/09/24 07:14:00;;;;;;;10.93;2.70;;;;;;;;;;5064506;28;20329;-60
2021/09/24 07:16:26;;;;;;;9.60;2.20;;;;;;;;;;5062449;28;20032;-57
2021/09/24 07:18:52;;;;;;;9.07;1.90;;;;;;;;;;5067546;28;20076;-59
2021/09/24 07:21:18;;;;;;;12.73;2.00;;;;;;;;;;5062177;28;20444;-59
2021/09/24 07:23:44;;;;;;;6.78;1.65;;;;;;;;;;5066158;28;20091;-60
2021/09/24 07:26:10;;;;;;;12.60;2.47;;;;;;;;;;5068766;28;20028;-59
2021/09/24 07:28:36;;;;;;;7.93;2.25;;;;;;;;;;5068424;28;20480;-60
2021/09/24 07:31:03;;;;;;;12.63;2.72;;;;;;;;;;5072068;28;20056;-60
2021/09/24 07:33:29;;;;;;;7.57;1.65;;;;;;;;;;5078595;28;20732;-60
2021/09/24 07:35:55;;;;;;;6.25;1.80;;;;;;;;;;5070773;28;20021;-60
2021/09/24 07:38:21;;;;;;;10.95;2.10;;;;;;;;;;5063534;28;20050;-59
2021/09/24 07:40:48;;;;;;;11.43;1.80;;;;;;;;;;5067101;28;20033;-60
2021/09/24 07:43:14;;;;;;;7.50;2.72;;;;;;;;;;5069824;28;20020;-58
2021/09/24 07:45:40;;;;;;;14.25;2.42;;;;;;;;;;5069610;28;20032;-59
2021/09/24 07:48:07;;;;;;;10.65;1.70;;;;;;;;;;5070509;28;20460;-59
2021/09/24 07:50:33;;;;;;;12.20;2.08;;;;;;;;;;5071376;28;20044;-60
2021/09/24 07:52:59;;;;;;;11.93;2.50;;;;;;;;;;5071618;28;20111;-58
2021/09/24 07:55:25;;;;;;;12.77;2.15;;;;;;;;;;5068794;28;20032;-59
2021/09/24 07:57:55;;;;;;;14.70;1.65;;;;;;;;;;5066751;28;20028;-60
2021/09/24 08:00:23;;;;;;;9.63;2.30;;;;;;;;;;5067915;28;20024;-58
2021/09/24 08:02:49;;;;;;;10.82;1.85;;;;;;;;;;5069113;28;20104;-60
2021/09/24 08:05:15;;;;;;;5.57;1.08;;;;;;;;;;5070032;28;20021;-59
2021/09/24 08:07:41;;;;;;;7.15;1.40;;;;;;;;;;5070944;28;20024;-60
2021/09/24 08:10:07;;;;;;;11.73;2.20;;;;;;;;;;5069571;28;20136;-58
2021/09/24 08:12:33;;;;;;;7.50;2.30;;;;;;;;;;5071306;28;20031;-58
2021/09/24 08:14:59;;;;;;;12.00;2.17;;;;;;;;;;5071108;28;20108;-59
2021/09/24 08:17:25;;;;;;;8.15;1.65;;;;;;;;;;5070840;28;20392;-59
2021/09/24 08:19:51;;;;;;;14.38;2.85;;;;;;;;;;5066725;28;20028;-60
2021/09/24 08:22:17;;;;;;;7.43;2.15;;;;;;;;;;5070914;28;20028;-60
2021/09/24 08:24:43;;;;;;;11.55;2.53;;;;;;;;;;5068670;28;20377;-60
2021/09/24 08:27:10;;;;;;;8.77;2.05;;;;;;;;;;5067097;28;20039;-60
2021/09/24 08:29:36;;;;;;;8.95;1.70;;;;;;;;;;5063292;28;20032;-60
2021/09/24 08:32:03;;;;;;;13.75;2.38;;;;;;;;;;5066132;28;20449;-60
2021/09/24 08:34:29;;;;;;;12.73;1.63;;;;;;;;;;5070751;28;20039;-60
2021/09/24 08:36:55;;;;;;;6.25;1.63;;;;;;;;;;5071522;28;20016;-60
2021/09/24 08:39:21;;;;;;;7.38;1.55;;;;;;;;;;5065354;28;20072;-61
2021/09/24 08:41:47;;;;;;;8.98;1.33;;;;;;;;;;5071550;28;20028;-60
2021/09/24 08:44:13;;;;;;;7.05;1.50;;;;;;;;;;5071516;28;20036;-58
2021/09/24 08:46:39;;;;;;;17.00;1.80;;;;;;;;;;5071768;28;20036;-60
2021/09/24 08:49:06;;;;;;;13.10;1.75;;;;;;;;;;5070919;28;20029;-60
2021/09/24 08:51:34;;;;;;;7.95;2.22;;;;;;;;;;5071814;28;20032;-58
2021/09/24 08:54:00;;;;;;;7.85;1.17;;;;;;;;;;5071132;28;20563;-60
2021/09/24 08:56:26;;;;;;;5.05;1.55;;;;;;;;;;5071593;28;20120;-60
2021/09/24 08:58:52;;;;;;;9.32;1.92;;;;;;;;;;5067859;28;20450;-60
2021/09/24 09:01:18;;;;;;;9.27;1.83;;;;;;;;;;5073929;28;20017;-59
2021/09/24 09:03:45;;;;;;;6.32;1.38;;;;;;;;;;5074312;28;20095;-58
2021/09/24 09:06:12;;;;;;;9.68;1.20;;;;;;;;;;5075301;28;20522;-60
2021/09/24 09:08:39;;;;;;;12.77;1.67;;;;;;;;;;5065669;28;20063;-60
2021/09/24 09:11:06;;;;;;;10.73;2.42;;;;;;;;;;5074875;28;20025;-60
2021/09/24 09:13:40;;;;;;;5.78;1.70;;;;;;;;;;5075158;28;20414;-55
2021/09/24 09:16:07;;;;;;;5.43;1.50;;;;;;;;;;5074848;28;20048;-59
2021/09/24 09:18:35;;;;;;;3.10;1.38;;;;;;;;;;5074496;28;20084;-59
2021/09/24 09:21:03;;;;;;;4.63;1.20;;;;;;;;;;5075019;28;20027;-60
2021/09/24 09:23:29;;;;;;;8.35;1.52;;;;;;;;;;5075124;28;20100;-60
2021/09/24 09:25:57;;;;;;;5.72;1.38;;;;;;;;;;5074467;28;20070;-60
2021/09/24 09:28:31;;;;;;;6.75;1.30;;;;;;;;;;5074363;28;20679;-60
2021/09/24 09:30:57;;;;;;;3.85;1.25;;;;;;;;;;5074147;28;20024;-58
2021/09/24 09:33:25;;;;;;;6.28;1.40;;;;;;;;;;5076784;28;20057;-60
2021/09/24 09:35:51;;;;;;;4.18;1.30;;;;;;;;;;5074962;28;20059;-60
2021/09/24 09:38:18;;;;;;;9.55;2.25;;;;;;;;;;5073956;28;20024;-60
2021/09/24 09:40:45;;;;;;;2.80;1.02;;;;;;;;;;5073780;28;20048;-60
2021/09/24 09:43:18;;;;;;;6.85;1.25;;;;;;;;;;5074300;28;20025;-60
2021/09/24 09:45:44;;;;;;;8.82;2.05;;;;;;;;;;5075002;28;20028;-60
2021/09/24 09:48:14;;;;;;;5.80;1.38;;;;;;;;;;5073898;28;20032;-60
2021/09/24 09:50:40;;;;;;;8.18;1.90;;;;;;;;;;5074460;28;20032;-60
2021/09/24 09:53:12;;;;;;;6.45;1.30;;;;;;;;;;5074588;28;20107;-60
2021/09/24 09:55:40;;;;;;;8.57;1.10;;;;;;;;;;5074400;28;20024;-60
2021/09/24 09:58:10;;;;;;;7.75;1.58;;;;;;;;;;5073446;28;20029;-60
2021/09/24 10:00:51;;;;;;;8.52;1.33;;;;;;;;;;5067461;28;20485;-60
2021/09/24 10:03:17;;;;;;;6.47;2.05;;;;;;;;;;5073831;28;20104;-60
2021/09/24 10:05:46;;;;;;;7.10;1.25;;;;;;;;;;5074093;28;20668;-60
2021/09/24 10:08:18;;;;;;;8.63;1.63;;;;;;;;;;5073134;28;20064;-60
2021/09/24 10:10:53;;;;;;;7.10;1.92;;;;;;;;;;5073971;28;20135;-60
2021/09/24 10:13:19;;;;;;;9.55;1.70;;;;;;;;;;5069579;28;20029;-60
2021/09/24 10:15:45;;;;;;;4.20;1.42;;;;;;;;;;5069501;28;20119;-60
2021/09/24 10:18:11;;;;;;;5.78;1.45;;;;;;;;;;5073257;28;20139;-59
2021/09/24 10:20:38;;;;;;;3.03;0.93;;;;;;;;;;5073859;28;20364;-60
2021/09/24 10:23:04;;;;;;;3.72;1.30;;;;;;;;;;5074008;28;20024;-59
2021/09/24 10:25:30;;;;;;;5.47;0.75;;;;;;;;;;5073682;28;20131;-59
2021/09/24 10:27:56;;;;;;;5.88;1.02;;;;;;;;;;5073198;28;20367;-60
2021/09/24 10:30:25;;;;;;;9.13;1.45;;;;;;;;;;5072140;28;20111;-60
2021/09/24 10:32:55;;;;;;;4.85;1.40;;;;;;;;;;5073828;28;20032;-59
2021/09/24 10:35:21;;;;;;;3.20;0.85;;;;;;;;;;5073634;28;20035;-60
2021/09/24 10:37:48;;;;;;;2.33;0.93;;;;;;;;;;5073053;28;20028;-60
2021/09/24 10:40:21;;;;;;;3.80;0.98;;;;;;;;;;5072911;28;20104;-59
2021/09/24 10:42:48;;;;;;;5.87;1.23;;;;;;;;;;5071947;28;20024;-60
2021/09/24 10:45:35;;;;;;;9.05;0.75;;;;;;;;;;5073613;28;20025;-59
2021/09/24 10:48:17;;;;;;;3.72;0.80;;;;;;;;;;5068891;28;20025;-60
2021/09/24 10:50:46;;;;;;;7.05;1.10;;;;;;;;;;5072524;28;20021;-60
2021/09/24 10:53:18;;;;;;;3.20;1.13;;;;;;;;;;5073248;28;20469;-60
2021/09/24 10:55:53;;;;;;;5.60;1.05;;;;;;;;;;5072557;28;20103;-59
2021/09/24 10:58:28;;;;;;;3.00;0.95;;;;;;;;;;5072371;28;20016;-59
2021/09/24 11:01:21;;;;;;;3.30;0.90;;;;;;;;;;5072742;28;20107;-60
2021/09/24 11:03:51;;;;;;;4.25;0.65;;;;;;;;;;5050818;28;20123;-60
2021/09/24 11:06:32;;;;;;;1.42;0.70;;;;;;;;;;5072497;28;20526;-59
2021/09/24 11:09:00;;;;;;;8.48;0.95;;;;;;;;;;5071308;28;20043;-60
2021/09/24 11:11:31;;;;;;;5.20;0.75;;;;;;;;;;5072867;28;20373;-60
2021/09/24 11:14:02;;;;;;;4.25;0.95;;;;;;;;;;5071444;28;20364;-60
2021/09/24 11:16:44;;;;;;;3.33;1.13;;;;;;;;;;5072925;28;20032;-60
2021/09/24 11:19:27;;;;;;;4.93;0.95;;;;;;;;;;5072506;28;20044;-60
2021/09/24 11:21:59;;;;;;;2.30;0.68;;;;;;;;;;5069079;28;20031;-60
2021/09/24 11:24:25;;;;;;;1.70;0.65;;;;;;;;;;5070204;28;20032;-60
2021/09/24 11:26:59;;;;;;;1.33;0.50;;;;;;;;;;5072412;28;20050;-60
2021/09/24 11:29:28;;;;;;;3.85;1.30;;;;;;;;;;5071962;28;20100;-60
2021/09/24 11:31:54;;;;;;;4.55;1.20;;;;;;;;;;5072479;28;20033;-60
2021/09/24 11:34:43;;;;;;;1.88;0.52;;;;;;;;;;5072324;28;20095;-60
2021/09/24 11:37:10;;;;;;;4.90;0.60;;;;;;;;;;5072200;28;20024;-61
2021/09/24 11:39:36;;;;;;;1.67;0.40;;;;;;;;;;5071595;28;20111;-60
2021/09/24 11:42:10;;;;;;;0.77;0.40;;;;;;;;;;5072034;28;20028;-59
2021/09/24 11:44:37;;;;;;;3.65;0.85;;;;;;;;;;5071382;28;20036;-60
2021/09/24 11:47:23;;;;;;;2.22;0.75;;;;;;;;;;5071228;28;20024;-60
2021/09/24 11:50:02;;;;;;;0.80;0.30;;;;;;;;;;5065707;28;20115;-60
2021/09/24 11:52:39;;;;;;;1.00;0.30;;;;;;;;;;5066339;28;20037;-60
2021/09/24 11:55:15;;;;;;;2.83;0.57;;;;;;;;;;5069941;28;20033;-60
2021/09/24 11:57:42;;;;;;;2.75;0.38;;;;;;;;;;5069530;28;20027;-59
2021/09/24 12:00:08;;;;;;;1.75;0.47;;;;;;;;;;5070693;28;20067;-57
2021/09/24 12:02:34;;;;;;;3.45;0.52;;;;;;;;;;5071464;28;20036;-59
2021/09/24 12:05:05;;;;;;;1.48;0.47;;;;;;;;;;5071809;28;20243;-57
2021/09/24 12:07:32;;;;;;;2.95;0.35;;;;;;;;;;5069948;28;20548;-60
2021/09/24 12:09:59;;;;;;;3.92;0.60;;;;;;;;;;5070078;28;20029;-56
2021/09/24 12:12:25;;;;;;;0.65;0.20;;;;;;;;;;5064393;28;20330;-60
2021/09/24 12:14:55;;;;;;;1.23;0.38;;;;;;;;;;5068141;28;20029;-60
2021/09/24 12:17:29;;;;;;;0.73;0.30;;;;;;;;;;5067565;28;20054;-60
2021/09/24 12:19:55;;;;;;;;;;;;;;;;;;5069048;28;20028;-60
2021/09/24 12:22:21;;;;;;;4.57;0.50;;;;;;;;;;5070202;28;19947;-57
2021/09/24 12:24:47;;;;;;;0.50;0.30;;;;;;;;;;5066651;28;20112;-58
2021/09/24 12:27:15;;;;;;;4.40;0.57;;;;;;;;;;5071647;28;20524;-57
2021/09/24 12:29:42;;;;;;;1.98;0.50;;;;;;;;;;5075051;28;20107;-60
2021/09/24 12:32:13;;;;;;;1.92;0.45;;;;;;;;;;5072110;28;20119;-58
2021/09/24 12:34:43;;;;;;;0.90;0.22;;;;;;;;;;5076623;28;20032;-60
2021/09/24 12:37:10;;;;;;;1.65;0.52;;;;;;;;;;5068290;28;20369;-59
2021/09/24 12:39:37;;;;;;;1.38;0.35;;;;;;;;;;5073066;28;20107;-61
2021/09/24 12:42:04;;;;;;;0.88;0.20;;;;;;;;;;5075741;28;20012;-60
2021/09/24 12:44:30;;;;;;;3.35;1.00;;;;;;;;;;5071888;28;20246;-61
2021/09/24 12:46:59;;;;;;;2.38;0.40;;;;;;;;;;5080453;28;20033;-61
2021/09/24 12:49:25;;;;;;;1.05;0.35;;;;;;;;;;5075214;28;20024;-61
2021/09/24 12:51:52;;;;;;;1.40;0.30;;;;;;;;;;5075257;28;20146;-61
2021/09/24 12:54:19;;;;;;;2.72;0.40;;;;;;;;;;5074562;28;20036;-59
2021/09/24 12:56:45;;;;;;;2.58;0.40;;;;;;;;;;5075715;28;20047;-60
2021/09/24 12:59:11;;;;;;;2.42;0.43;;;;;;;;;;5069413;28;20378;-60
2021/09/24 13:01:38;;;;;;;1.33;0.40;;;;;;;;;;5073239;28;20099;-62
2021/09/24 13:04:04;;;;;;;2.08;0.40;;;;;;;;;;5071779;28;20025;-62
2021/09/24 13:06:31;;;;;;;3.42;0.20;;;;;;;;;;5068258;28;20527;-61
2021/09/24 13:08:57;;;;;;;1.63;0.30;;;;;;;;;;5074074;28;20044;-61
2021/09/24 13:11:25;;;;;;;1.40;0.40;;;;;;;;;;5074749;28;20039;-61
2021/09/24 13:13:55;;;;;;;0.90;0.30;;;;;;;;;;5065557;28;20051;-62
2021/09/24 13:16:22;;;;;;;1.85;0.63;;;;;;;;;;5070765;28;20037;-61
2021/09/24 13:18:49;;;;;;;0.52;0.20;;;;;;;;;;5070961;28;20040;-62
2021/09/24 13:21:18;;;;;;;2.22;0.68;;;;;;;;;;5073699;28;20020;-62
2021/09/24 13:23:45;;;;;;;1.27;0.20;;;;;;;;;;5074177;28;20025;-62
2021/09/24 13:26:11;;;;;;;1.38;0.10;;;;;;;;;;5069331;28;20025;-61
2021/09/24 13:28:37;;;;;;;1.25;0.30;;;;;;;;;;5072079;28;20873;-62
2021/09/24 13:31:03;;;;;;;1.40;0.73;;;;;;;;;;5074664;28;20033;-61
2021/09/24 13:33:30;;;;;;;3.83;0.47;;;;;;;;;;5075122;28;20039;-61
2021/09/24 13:35:56;;;;;;;1.55;0.40;;;;;;;;;;5072931;28;20039;-61
2021/09/24 13:38:22;;;;;;;1.10;0.30;;;;;;;;;;5071924;28;20107;-62
2021/09/24 13:40:47;;;;;;;1.05;0.38;;;;;;;;;;5076168;28;20108;-61
2021/09/24 13:43:13;;;;;;;1.55;0.32;;;;;;;;;;5069130;28;20530;-61
2021/09/24 13:45:40;;;;;;;4.55;0.75;;;;;;;;;;5060336;28;20051;-61
2021/09/24 13:48:06;;;;;;;2.03;0.55;;;;;;;;;;5069987;28;20396;-61
2021/09/24 13:50:32;;;;;;;2.92;0.75;;;;;;;;;;5069147;28;20105;-60
2021/09/24 13:52:59;;;;;;;0.50;0.20;;;;;;;;;;5069624;28;20037;-61
2021/09/24 13:55:25;;;;;;;2.08;0.52;;;;;;;;;;5072423;28;20115;-61
2021/09/24 13:57:51;;;;;;;1.33;0.38;;;;;;;;;;5067381;28;20234;-61
2021/09/24 14:00:18;;;;;;;3.65;0.88;;;;;;;;;;5072107;28;20055;-61
2021/09/24 14:02:44;;;;;;;1.95;0.47;;;;;;;;;;5065800;28;20391;-61
2021/09/24 14:05:11;;;;;;;1.00;0.45;;;;;;;;;;5066305;28;20114;-61
2021/09/24 14:07:37;;;;;;;1.83;0.50;;;;;;;;;;5071429;28;20477;-61
2021/09/24 14:10:04;;;;;;;1.35;0.40;;;;;;;;;;5072434;28;20034;-61
2021/09/24 14:12:30;;;;;;;0.68;0.30;;;;;;;;;;5070682;28;20214;-61
2021/09/24 14:14:56;;;;;;;0.65;0.20;;;;;;;;;;5071703;28;20125;-61
2021/09/24 14:17:22;;;;;;;0.47;0.25;;;;;;;;;;5065618;28;20118;-61
2021/09/24 14:19:48;;;;;;;0.75;0.40;;;;;;;;;;5073541;28;20126;-62
2021/09/24 14:22:14;;;;;;;1.67;0.50;;;;;;;;;;5068513;28;20024;-61
2021/09/24 14:24:40;;;;;;;1.80;0.40;;;;;;;;;;5068293;28;20025;-61
2021/09/24 14:27:07;;;;;;;2.08;0.30;;;;;;;;;;5063978;28;20159;-60
2021/09/24 14:29:34;;;;;;;4.43;0.73;;;;;;;;;;5066777;28;20373;-61
2021/09/24 14:32:01;;;;;;;2.05;0.35;;;;;;;;;;5061971;28;20032;-59
2021/09/24 14:34:27;;;;;;;3.80;0.47;;;;;;;;;;5067756;28;20481;-61
2021/09/24 14:36:53;;;;;;;1.55;0.60;;;;;;;;;;5072215;28;20029;-61